Time;durP1;ratioP1;P1;durP2;ratioP2;P2;SDS_P1;SDS_P2;PMS_P1;PMS_P2;Temp;Humidity;BMP_temperature;BMP_pressure;BME280_temperature;BME280_humidity;BME280_pressure;Samples;Min_cycle;Max_cycle;Signal;HPM_P1;HPM_P2
2021/05/24 00:02:23;;;;;;;;;1.00;1.00;;;;;21.20;36.89;100509.06;5042440;28;45271;-64
2021/05/24 00:04:48;;;;;;;;;2.00;2.00;;;;;21.20;36.88;100511.72;5041047;28;45437;-65
2021/05/24 00:07:14;;;;;;;;;3.00;1.67;;;;;21.19;37.05;100500.31;5024085;28;47936;-64
2021/05/24 00:09:40;;;;;;;;;1.00;1.00;;;;;21.20;36.82;100499.38;5023872;28;45355;-65
2021/05/24 00:12:07;;;;;;;;;1.33;1.33;;;;;21.19;36.76;100494.16;5040798;28;45432;-64
2021/05/24 00:14:34;;;;;;;;;1.00;1.00;;;;;21.20;36.99;100501.16;5024084;28;45462;-64
2021/05/24 00:17:00;;;;;;;;;1.00;1.00;;;;;21.20;37.10;100491.47;5038689;28;47124;-64
2021/05/24 00:19:25;;;;;;;;;0.67;0.67;;;;;21.18;36.63;100495.97;5020506;28;45391;-65
2021/05/24 00:21:50;;;;;;;;;0.67;0.67;;;;;21.18;36.90;100480.13;5021543;28;54845;-65
2021/05/24 00:24:16;;;;;;;;;0.67;0.67;;;;;21.17;36.78;100479.28;5034866;28;45457;-64
2021/05/24 00:26:41;;;;;;;;;1.67;1.67;;;;;21.18;37.00;100485.41;5036313;28;45873;-64
2021/05/24 00:29:07;;;;;;;;;2.33;1.00;;;;;21.17;37.07;100481.06;5024649;28;59858;-65
2021/05/24 00:31:32;;;;;;;;;0.67;0.67;;;;;21.17;36.99;100468.75;5025393;28;45220;-64
2021/05/24 00:33:58;;;;;;;;;0.67;0.67;;;;;21.16;36.86;100469.69;5025585;28;45480;-64
2021/05/24 00:36:24;;;;;;;;;1.33;1.33;;;;;21.16;36.96;100474.94;5024923;28;45424;-65
2021/05/24 00:38:49;;;;;;;;;0.67;0.67;;;;;21.16;36.71;100467.03;5025243;28;45341;-64
2021/05/24 00:41:15;;;;;;;;;1.00;1.00;;;;;21.16;36.96;100469.69;5025354;28;45253;-65
2021/05/24 00:43:41;;;;;;;;;2.00;2.00;;;;;21.17;37.02;100465.22;5017380;28;45434;-66
2021/05/24 00:46:06;;;;;;;;;1.00;1.00;;;;;21.16;36.72;100456.47;5024947;28;46289;-65
2021/05/24 00:48:31;;;;;;;;;0.67;0.67;;;;;21.15;36.84;100454.78;5025054;28;45356;-65
2021/05/24 00:50:57;;;;;;;;;1.67;1.67;;;;;21.16;36.89;100451.19;5025320;28;45370;-65
2021/05/24 00:53:22;;;;;;;;;0.67;0.67;;;;;21.15;36.64;100443.34;5024124;28;45382;-65
2021/05/24 00:55:48;;;;;;;;;2.67;0.67;;;;;21.15;36.75;100440.72;5041138;28;45685;-65
2021/05/24 00:58:13;;;;;;;;;0.67;0.67;;;;;21.16;36.97;100445.06;5042882;28;58193;-63
2021/05/24 01:00:40;;;;;;;;;1.00;1.00;;;;;21.15;36.84;100433.66;5043598;28;45393;-63
2021/05/24 01:03:07;;;;;;;;;1.00;1.00;;;;;21.15;36.89;100438.94;5045273;28;45438;-65
2021/05/24 01:05:33;;;;;;;;;2.00;2.00;;;;;21.14;36.89;100429.31;5043430;28;46163;-65
2021/05/24 01:07:59;;;;;;;;;0.33;0.33;;;;;21.15;36.85;100422.25;5043590;28;45707;-64
2021/05/24 01:10:25;;;;;;;;;0.67;0.67;;;;;21.14;36.81;100424.03;5044985;28;45296;-64
2021/05/24 01:12:50;;;;;;;;;0.67;0.67;;;;;21.14;36.97;100404.69;5045125;28;45308;-64
2021/05/24 01:15:16;;;;;;;;;1.33;1.33;;;;;21.13;37.05;100403.00;5044968;28;46282;-64
2021/05/24 01:17:43;;;;;;;;;1.33;1.33;;;;;21.14;36.84;100399.44;5038024;28;45412;-63
2021/05/24 01:20:09;;;;;;;;;1.67;0.67;;;;;21.13;36.84;100401.22;5024851;28;45331;-65
2021/05/24 01:22:37;;;;;;;;;1.67;1.67;;;;;21.14;36.93;100388.88;5026571;28;45470;-64
2021/05/24 01:25:07;;;;;;;;;2.67;1.33;;;;;21.12;36.70;100382.81;5029731;28;45363;-64
2021/05/24 01:27:33;;;;;;;;;1.00;1.00;;;;;21.12;36.97;100385.47;5044565;28;45395;-65
2021/05/24 01:29:59;;;;;;;;;1.67;1.00;;;;;21.11;36.86;100381.09;5043452;28;45442;-65
2021/05/24 01:32:25;;;;;;;;;2.00;1.33;;;;;21.11;36.73;100381.97;5043716;28;45348;-65
2021/05/24 01:34:51;;;;;;;;;0.67;0.67;;;;;21.11;37.27;100378.47;5044166;28;45625;-64
2021/05/24 01:37:16;;;;;;;;;1.67;1.67;;;;;21.11;37.02;100373.19;5044176;28;45402;-65
2021/05/24 01:39:42;;;;;;;;;1.33;1.33;;;;;21.11;36.85;100370.56;5041906;28;45585;-64
2021/05/24 01:42:07;;;;;;;;;1.67;1.67;;;;;21.10;36.85;100369.72;5043009;28;45593;-64
2021/05/24 01:44:36;;;;;;;;;2.33;0.67;;;;;21.11;36.98;100373.19;5044060;28;46096;-64
2021/05/24 01:47:02;;;;;;;;;2.00;0.67;;;;;21.10;36.96;100372.34;5044613;28;45341;-64
2021/05/24 01:49:30;;;;;;;;;2.67;2.33;;;;;21.10;36.89;100363.59;5044799;28;45411;-65
2021/05/24 01:51:55;;;;;;;;;0.67;0.67;;;;;21.10;36.93;100369.72;5045147;28;45294;-65
2021/05/24 01:54:21;;;;;;;;;0.67;0.67;;;;;21.09;36.69;100375.94;5044140;28;52878;-65
2021/05/24 01:56:46;;;;;;;;;0.33;0.33;;;;;21.10;36.70;100368.88;5032970;28;45687;-64
2021/05/24 01:59:12;;;;;;;;;0.67;0.67;;;;;21.10;36.89;100368.88;5024253;28;45300;-64
2021/05/24 02:01:37;;;;;;;;;1.67;1.67;;;;;21.09;36.88;100365.38;5023441;28;45232;-64
2021/05/24 02:04:03;;;;;;;;;0.67;0.67;;;;;21.09;36.83;100361.91;5025163;28;46313;-64
2021/05/24 02:06:29;;;;;;;;;1.67;1.67;;;;;21.08;36.81;100358.38;5043820;28;45263;-65
2021/05/24 02:08:55;;;;;;;;;1.33;0.33;;;;;21.08;36.78;100349.63;5044216;28;45513;-66
2021/05/24 02:11:20;;;;;;;;;0.67;0.67;;;;;21.09;36.93;100356.63;5044757;28;45213;-64
2021/05/24 02:13:46;;;;;;;;;1.33;1.33;;;;;21.08;36.97;100353.09;5044008;28;45242;-65
2021/05/24 02:16:11;;;;;;;;;0.67;0.67;;;;;21.07;36.76;100348.75;5044699;28;45501;-64
2021/05/24 02:18:37;;;;;;;;;0.00;0.00;;;;;21.08;36.75;100344.34;5028835;28;45277;-65
2021/05/24 02:21:03;;;;;;;;;0.67;0.67;;;;;21.08;36.77;100353.09;5023101;28;45540;-64
2021/05/24 02:23:29;;;;;;;;;1.67;1.67;;;;;21.07;37.06;100348.75;5031894;28;45989;-65
2021/05/24 02:25:55;;;;;;;;;1.00;1.00;;;;;21.06;36.82;100349.69;5023777;28;45320;-65
2021/05/24 02:28:20;;;;;;;;;1.67;0.33;;;;;21.06;37.02;100340.94;5024014;28;45698;-64
2021/05/24 02:30:46;;;;;;;;;1.00;1.00;;;;;21.05;36.83;100339.25;5024329;28;45467;-65
2021/05/24 02:33:11;;;;;;;;;0.00;0.00;;;;;21.04;36.95;100343.63;5024281;28;46422;-65
2021/05/24 02:35:37;;;;;;;;;2.00;1.00;;;;;21.05;36.82;100332.16;5023895;28;59542;-65
2021/05/24 02:38:03;;;;;;;;;1.00;1.00;;;;;21.05;36.80;100331.31;5022867;28;45268;-65
2021/05/24 02:40:29;;;;;;;;;0.67;0.67;;;;;21.04;36.76;100329.63;5024694;28;45516;-65
2021/05/24 02:42:54;;;;;;;;;0.67;0.67;;;;;21.04;36.72;100329.63;5019195;28;47348;-65
2021/05/24 02:45:20;;;;;;;;;0.67;0.67;;;;;21.04;36.77;100334.88;5024235;28;45321;-65
2021/05/24 02:47:47;;;;;;;;;1.00;1.00;;;;;21.05;36.71;100323.41;5024006;28;45145;-66
2021/05/24 02:50:16;;;;;;;;;0.00;0.00;;;;;21.04;36.71;100321.69;5023043;28;45553;-65
2021/05/24 02:52:41;;;;;;;;;1.33;1.33;;;;;21.03;37.03;100320.84;5017550;28;47785;-65
2021/05/24 02:55:08;;;;;;;;;0.33;0.33;;;;;21.02;37.01;100314.72;5032203;28;45438;-65
2021/05/24 02:57:33;;;;;;;;;0.00;0.00;;;;;21.02;36.79;100314.72;5027119;28;45387;-65
2021/05/24 02:59:58;;;;;;;;;0.33;0.33;;;;;21.02;37.28;100305.97;5011800;28;45555;-65
2021/05/24 03:02:27;;;;;;;;;0.33;0.33;;;;;21.02;36.96;100292.78;5021945;28;58666;-65
2021/05/24 03:04:54;;;;;;;;;1.67;0.67;;;;;21.01;36.92;100297.19;5023711;28;45414;-65
2021/05/24 03:07:19;;;;;;;;;0.67;0.67;;;;;21.01;36.97;100309.53;5022126;28;45410;-65
2021/05/24 03:09:45;;;;;;;;;1.00;0.67;;;;;21.01;36.94;100301.63;5023658;28;45288;-67
2021/05/24 03:12:10;;;;;;;;;0.67;0.67;;;;;21.00;37.12;100305.19;5023095;28;45531;-65
2021/05/24 03:14:36;;;;;;;;;0.67;0.67;;;;;21.00;37.08;100313.09;5023124;28;52572;-66
2021/05/24 03:17:01;;;;;;;;;0.67;0.67;;;;;21.00;36.90;100308.66;5023148;28;45252;-65
2021/05/24 03:19:27;;;;;;;;;0.67;0.67;;;;;20.99;37.30;100299.03;5023494;28;45275;-65
2021/05/24 03:21:52;;;;;;;;;0.67;0.67;;;;;20.99;36.90;100304.31;5023266;28;45996;-65
2021/05/24 03:24:18;;;;;;;;;0.00;0.00;;;;;21.00;36.92;100307.81;5029935;28;45459;-66
2021/05/24 03:26:43;;;;;;;;;0.67;0.67;;;;;20.98;36.82;100305.25;5023332;28;45213;-66
2021/05/24 03:29:09;;;;;;;;;1.00;1.00;;;;;20.99;36.72;100303.47;5022634;28;45708;-66
2021/05/24 03:31:34;;;;;;;;;1.00;0.67;;;;;20.98;36.99;100305.25;5034916;28;47195;-65
2021/05/24 03:33:59;;;;;;;;;1.67;1.67;;;;;20.98;37.26;100305.25;5023154;28;45335;-65
2021/05/24 03:36:25;;;;;;;;;0.67;0.67;;;;;20.98;37.16;100293.88;5023021;28;45470;-66
2021/05/24 03:38:50;;;;;;;;;0.00;0.00;;;;;20.97;37.03;100294.78;5030406;28;45229;-65
2021/05/24 03:41:15;;;;;;;;;0.33;0.33;;;;;20.96;37.28;100291.28;5027657;28;46131;-65
2021/05/24 03:43:46;;;;;;;;;0.67;0.67;;;;;20.96;36.94;100301.84;5022131;28;66149;-65
2021/05/24 03:46:12;;;;;;;;;0.67;0.67;;;;;20.96;36.91;100291.28;5022250;28;45276;-65
2021/05/24 03:48:37;;;;;;;;;0.67;0.67;;;;;20.96;37.14;100295.72;5023020;28;45450;-65
2021/05/24 03:51:04;;;;;;;;;0.00;0.00;;;;;20.95;37.00;100302.78;5021694;28;46357;-65
2021/05/24 03:53:29;;;;;;;;;0.33;0.33;;;;;20.95;37.06;100294.84;5023021;28;45411;-65
2021/05/24 03:55:55;;;;;;;;;0.67;0.67;;;;;20.95;37.08;100305.41;5031013;28;45294;-65
2021/05/24 03:58:20;;;;;;;;;0.67;0.67;;;;;20.94;37.14;100303.72;5013053;28;45514;-66
2021/05/24 04:00:45;;;;;;;;;0.67;0.67;;;;;20.94;37.16;100303.72;5021318;28;46288;-65
2021/05/24 04:03:11;;;;;;;;;1.33;0.67;;;;;20.94;37.00;100309.00;5022768;28;45387;-65
2021/05/24 04:05:38;;;;;;;;;0.67;0.67;;;;;20.94;37.03;100310.78;5022855;28;45502;-65
2021/05/24 04:08:06;;;;;;;;;0.67;0.67;;;;;20.93;37.06;100309.94;5023048;28;45415;-65
2021/05/24 04:10:38;;;;;;;;;1.00;1.00;;;;;20.93;37.01;100303.78;5022130;28;47224;-66
2021/05/24 04:13:04;;;;;;;;;0.67;0.67;;;;;20.93;37.10;100303.78;5040694;28;45275;-64
2021/05/24 04:15:30;;;;;;;;;1.00;1.00;;;;;20.93;36.99;100309.06;5041841;28;45423;-65
2021/05/24 04:17:57;;;;;;;;;0.67;0.67;;;;;20.92;37.22;100308.22;5032657;28;45557;-65
2021/05/24 04:20:24;;;;;;;;;0.67;0.67;;;;;20.92;37.23;100304.72;5020631;28;45561;-65
2021/05/24 04:22:49;;;;;;;;;0.67;0.67;;;;;20.91;37.04;100306.53;5024394;28;45418;-65
2021/05/24 04:25:15;;;;;;;;;1.33;0.67;;;;;20.91;37.22;100303.88;5022122;28;45316;-65
2021/05/24 04:27:40;;;;;;;;;0.00;0.00;;;;;20.91;37.16;100305.66;5021863;28;45574;-65
2021/05/24 04:30:11;;;;;;;;;0.67;0.67;;;;;20.91;37.17;100303.00;5021842;28;46095;-65
2021/05/24 04:32:36;;;;;;;;;0.67;0.67;;;;;20.91;37.33;100308.28;5021714;28;45311;-65
2021/05/24 04:35:02;;;;;;;;;0.00;0.00;;;;;20.90;37.05;100309.22;5020632;28;45284;-65
2021/05/24 04:37:28;;;;;;;;;1.67;1.67;;;;;20.89;37.13;100311.03;5021934;28;45423;-65
2021/05/24 04:39:53;;;;;;;;;0.67;0.67;;;;;20.89;37.25;100313.66;5021607;28;46237;-65
2021/05/24 04:42:21;;;;;;;;;1.67;0.67;;;;;20.90;37.34;100312.72;5021534;28;45226;-65
2021/05/24 04:44:46;;;;;;;;;1.00;1.00;;;;;20.89;36.87;100324.22;5021876;28;45256;-65
2021/05/24 04:47:11;;;;;;;;;1.00;1.00;;;;;20.88;37.38;100314.59;5021581;28;45294;-65
2021/05/24 04:49:37;;;;;;;;;0.67;0.67;;;;;20.88;37.14;100319.00;5021516;28;45377;-65
2021/05/24 04:52:02;;;;;;;;;0.67;0.67;;;;;20.88;37.30;100319.00;5020193;28;45365;-65
2021/05/24 04:54:29;;;;;;;;;0.33;0.33;;;;;20.88;37.31;100325.13;5028671;28;45292;-65
2021/05/24 04:56:54;;;;;;;;;0.67;0.67;;;;;20.87;37.36;100328.69;5029102;28;45489;-65
2021/05/24 04:59:20;;;;;;;;;0.33;0.33;;;;;20.88;37.06;100334.81;5021224;28;46172;-65
2021/05/24 05:01:47;;;;;;;;;1.33;1.33;;;;;20.86;37.43;100335.78;5021476;28;45244;-65
2021/05/24 05:04:14;;;;;;;;;2.67;0.33;;;;;20.88;37.31;100337.44;5021424;28;45394;-65
2021/05/24 05:06:39;;;;;;;;;1.00;1.00;;;;;20.86;37.33;100327.00;5021677;28;45435;-65
2021/05/24 05:09:05;;;;;;;;;0.67;0.33;;;;;20.86;37.31;100319.97;5021236;28;45296;-65
2021/05/24 05:11:30;;;;;;;;;2.00;0.33;;;;;20.85;37.44;100315.59;5021292;28;45173;-65
2021/05/24 05:13:56;;;;;;;;;0.67;0.67;;;;;20.85;37.35;100323.53;5006024;28;45339;-64
2021/05/24 05:16:21;;;;;;;;;0.33;0.33;;;;;20.84;37.31;100324.44;5023234;28;55190;-66
2021/05/24 05:18:46;;;;;;;;;0.67;0.67;;;;;20.84;37.09;100316.53;5024380;28;46168;-65
2021/05/24 05:21:12;;;;;;;;;0.67;0.00;;;;;20.85;37.43;100317.38;5024084;28;55347;-65
2021/05/24 05:23:37;;;;;;;;;0.00;0.00;;;;;20.84;37.24;100318.31;5030836;28;56886;-65
2021/05/24 05:26:02;;;;;;;;;0.67;0.67;;;;;20.84;37.43;100313.91;5024848;28;45332;-65
2021/05/24 05:28:28;;;;;;;;;1.00;1.00;;;;;20.84;37.15;100313.91;5022517;28;56516;-65
2021/05/24 05:30:53;;;;;;;;;0.67;0.67;;;;;20.84;37.53;100313.03;5024521;28;45356;-65
2021/05/24 05:33:19;;;;;;;;;0.00;0.00;;;;;20.83;37.32;100300.78;5024555;28;45360;-65
2021/05/24 05:35:47;;;;;;;;;0.00;0.00;;;;;20.84;37.64;100302.50;5028721;28;45502;-64
2021/05/24 05:38:14;;;;;;;;;0.67;0.67;;;;;20.83;37.38;100306.06;5044013;28;46137;-65
2021/05/24 05:40:39;;;;;;;;;0.67;0.67;;;;;20.82;37.28;100310.50;5044067;28;45437;-65
2021/05/24 05:43:05;;;;;;;;;0.67;0.67;;;;;20.82;37.62;100315.75;5042879;28;45822;-65
2021/05/24 05:45:30;;;;;;;;;0.67;0.67;;;;;20.82;36.94;100310.50;5044609;28;45488;-65
2021/05/24 05:47:56;;;;;;;;;0.00;0.00;;;;;20.81;37.52;100319.34;5043825;28;46278;-65
2021/05/24 05:50:21;;;;;;;;;0.67;0.67;;;;;20.82;37.55;100314.88;5044027;28;45299;-65
2021/05/24 05:52:47;;;;;;;;;0.67;0.67;;;;;20.82;37.56;100318.41;5043138;28;45409;-66
2021/05/24 05:55:13;;;;;;;;;0.33;0.33;;;;;20.81;37.61;100324.59;5032595;28;45415;-66
2021/05/24 05:57:38;;;;;;;;;1.00;1.00;;;;;20.81;37.37;100316.69;5022868;28;46299;-66
2021/05/24 06:00:05;;;;;;;;;0.67;0.67;;;;;20.80;37.51;100314.97;5024341;28;45394;-66
2021/05/24 06:02:31;;;;;;;;;0.67;0.67;;;;;20.81;37.55;100315.81;5024732;28;45323;-65
2021/05/24 06:04:59;;;;;;;;;1.33;0.67;;;;;20.81;37.42;100315.81;5014107;28;45261;-66
2021/05/24 06:07:25;;;;;;;;;0.67;0.67;;;;;20.81;37.54;100313.19;5026889;28;45560;-66
2021/05/24 06:09:51;;;;;;;;;0.67;0.67;;;;;20.80;37.38;100328.16;5025607;28;45323;-65
2021/05/24 06:12:19;;;;;;;;;1.67;1.67;;;;;20.80;37.44;100324.66;5023595;28;45395;-66
2021/05/24 06:14:44;;;;;;;;;1.00;1.00;;;;;20.80;37.44;100320.25;5031290;28;45406;-66
2021/05/24 06:17:10;;;;;;;;;2.00;0.67;;;;;20.79;37.43;100325.63;5031042;28;45941;-66
2021/05/24 06:19:36;;;;;;;;;0.67;0.67;;;;;20.79;37.83;100326.47;5009996;28;45380;-65
2021/05/24 06:22:01;;;;;;;;;0.00;0.00;;;;;20.79;37.51;100333.53;5022910;28;53143;-66
2021/05/24 06:24:27;;;;;;;;;0.33;0.00;;;;;20.79;37.64;100331.72;5033679;28;45251;-65
2021/05/24 06:26:52;;;;;;;;;0.00;0.00;;;;;20.80;37.46;100337.84;5037009;28;46310;-65
2021/05/24 06:29:22;;;;;;;;;0.67;0.67;;;;;20.79;37.37;100330.91;5042869;28;45273;-65
2021/05/24 06:31:52;;;;;;;;;0.67;0.33;;;;;20.80;37.74;100333.44;5043861;28;45550;-65
2021/05/24 06:34:18;;;;;;;;;1.00;0.67;;;;;20.80;37.65;100336.09;5043944;28;45223;-65
2021/05/24 06:36:43;;;;;;;;;1.33;1.33;;;;;20.80;37.68;100332.56;5041971;28;47907;-65
2021/05/24 06:39:09;;;;;;;;;0.67;0.67;;;;;20.79;37.51;100330.91;5027437;28;45153;-65
2021/05/24 06:41:35;;;;;;;;;0.67;0.67;;;;;20.79;37.68;100337.00;5022311;28;45375;-66
2021/05/24 06:44:00;;;;;;;;;0.67;0.67;;;;;20.80;37.56;100335.22;5022587;28;54522;-66
2021/05/24 06:46:26;;;;;;;;;0.33;0.33;;;;;20.78;37.62;100340.56;5021916;28;46998;-66
2021/05/24 06:48:52;;;;;;;;;0.67;0.67;;;;;20.80;37.40;100345.75;5023240;28;45216;-65
2021/05/24 06:51:18;;;;;;;;;0.67;0.67;;;;;20.79;37.68;100342.28;5022164;28;45528;-65
2021/05/24 06:53:44;;;;;;;;;0.33;0.33;;;;;20.79;37.58;100352.84;5023425;28;45398;-65
2021/05/24 06:56:10;;;;;;;;;0.67;0.67;;;;;20.78;37.80;100343.22;5028596;28;45477;-65
2021/05/24 06:58:35;;;;;;;;;0.67;0.67;;;;;20.79;37.62;100355.47;5042304;28;45313;-65
2021/05/24 07:01:01;;;;;;;;;0.67;0.67;;;;;20.78;37.64;100361.66;5043074;28;45851;-65
2021/05/24 07:03:26;;;;;;;;;1.00;1.00;;;;;20.79;37.85;100352.00;5042896;28;45374;-65
2021/05/24 07:05:52;;;;;;;;;0.67;0.67;;;;;20.79;38.14;100346.72;5042533;28;50064;-65
2021/05/24 07:08:17;;;;;;;;;0.67;0.67;;;;;20.80;37.79;100345.75;5042695;28;45430;-65
2021/05/24 07:10:42;;;;;;;;;1.67;1.67;;;;;20.80;38.18;100353.66;5041688;28;45401;-66
2021/05/24 07:13:08;;;;;;;;;0.67;0.67;;;;;20.79;37.79;100362.53;5042678;28;45463;-64
2021/05/24 07:15:33;;;;;;;;;1.67;1.67;;;;;20.80;37.88;100359.81;5041155;28;45316;-64
2021/05/24 07:17:59;;;;;;;;;1.33;1.33;;;;;20.80;38.00;100351.03;5030987;28;45328;-65
2021/05/24 07:20:24;;;;;;;;;1.33;1.33;;;;;20.80;37.75;100353.66;5022674;28;45857;-65
2021/05/24 07:22:49;;;;;;;;;1.33;1.33;;;;;20.80;38.20;100348.41;5025394;28;45418;-64
2021/05/24 07:25:16;;;;;;;;;2.00;1.67;;;;;20.81;37.89;100358.00;5028974;28;45474;-64
2021/05/24 07:27:42;;;;;;;;;0.33;0.33;;;;;20.80;38.06;100354.53;5027775;28;45183;-65
2021/05/24 07:30:08;;;;;;;;;1.00;0.67;;;;;20.81;37.99;100366.78;5022777;28;45554;-65
2021/05/24 07:32:34;;;;;;;;;0.67;0.67;;;;;20.80;37.94;100367.72;5034684;28;45347;-65
2021/05/24 07:34:59;;;;;;;;;0.67;0.67;;;;;20.81;37.79;100371.19;5028946;28;47046;-66
2021/05/24 07:37:25;;;;;;;;;0.67;0.67;;;;;20.80;37.97;100373.00;5039141;28;57794;-65
2021/05/24 07:39:51;;;;;;;;;0.67;0.67;;;;;20.80;37.80;100374.75;5022822;28;45370;-65
2021/05/24 07:42:16;;;;;;;;;0.00;0.00;;;;;20.80;37.74;100383.53;5022341;28;45549;-65
2021/05/24 07:44:41;;;;;;;;;0.67;0.67;;;;;20.80;38.00;100382.69;5029647;28;46086;-66
2021/05/24 07:47:07;;;;;;;;;0.67;0.67;;;;;20.80;37.75;100386.19;5038331;28;72625;-65
2021/05/24 07:49:33;;;;;;;;;1.33;1.33;;;;;20.80;38.01;100377.41;5022448;28;45233;-66
2021/05/24 07:51:58;;;;;;;;;2.00;0.67;;;;;20.80;37.77;100385.31;5021287;28;45410;-65
2021/05/24 07:54:24;;;;;;;;;2.67;1.33;;;;;20.79;38.01;100376.56;5021563;28;64399;-65
2021/05/24 07:56:50;;;;;;;;;0.00;0.00;;;;;20.80;37.84;100374.75;5021633;28;45280;-65
2021/05/24 07:59:15;;;;;;;;;0.67;0.67;;;;;20.80;37.57;100387.94;5021346;28;45540;-65
2021/05/24 08:01:41;;;;;;;;;1.00;1.00;;;;;20.80;37.89;100401.13;5022438;28;45543;-65
2021/05/24 08:04:06;;;;;;;;;0.33;0.33;;;;;20.80;37.97;100398.50;5021989;28;45632;-66
2021/05/24 08:06:32;;;;;;;;;0.67;0.67;;;;;20.80;38.06;100403.78;5021880;28;45319;-65
2021/05/24 08:08:58;;;;;;;;;0.67;0.67;;;;;20.80;38.26;100406.41;5021211;28;45412;-66
2021/05/24 08:11:24;;;;;;;;;1.33;1.33;;;;;20.80;37.88;100402.00;5021148;28;45387;-65
2021/05/24 08:13:53;;;;;;;;;0.67;0.67;;;;;20.80;37.84;100390.59;5028541;28;47251;-65
2021/05/24 08:16:20;;;;;;;;;0.00;0.00;;;;;20.80;38.07;100391.47;5038717;28;45454;-64
2021/05/24 08:18:46;;;;;;;;;0.67;0.67;;;;;20.79;37.87;100395.03;5020809;28;45214;-64
2021/05/24 08:21:12;;;;;;;;;0.00;0.00;;;;;20.79;37.74;100391.53;5020849;28;45418;-65
2021/05/24 08:23:37;;;;;;;;;0.67;0.67;;;;;20.80;37.84;100391.47;5023327;28;45510;-66
2021/05/24 08:26:03;;;;;;;;;1.33;1.33;;;;;20.81;37.97;100387.03;5021778;28;45368;-65
2021/05/24 08:28:29;;;;;;;;;0.33;0.33;;;;;20.80;37.91;100386.19;5028713;28;45412;-65
2021/05/24 08:30:56;;;;;;;;;0.67;0.67;;;;;20.81;38.13;100393.16;5038924;28;45586;-66
2021/05/24 08:33:22;;;;;;;;;1.67;1.67;;;;;20.80;38.14;100391.47;5021878;28;46299;-66
2021/05/24 08:35:48;;;;;;;;;0.67;0.67;;;;;20.82;37.94;100383.47;5021847;28;45272;-65
2021/05/24 08:38:14;;;;;;;;;1.67;1.67;;;;;20.81;38.08;100384.38;5032332;28;45330;-66
2021/05/24 08:40:40;;;;;;;;;0.67;0.67;;;;;20.80;38.36;100383.53;5033698;28;45509;-65
2021/05/24 08:43:06;;;;;;;;;0.67;0.67;;;;;20.82;37.95;100380.81;5021466;28;45307;-65
2021/05/24 08:45:36;;;;;;;;;0.67;0.67;;;;;20.81;37.84;100373.84;5021591;28;45322;-65
2021/05/24 08:48:02;;;;;;;;;0.67;0.67;;;;;20.81;37.86;100373.84;5023390;28;45238;-67
2021/05/24 08:50:29;;;;;;;;;0.33;0.33;;;;;20.82;38.05;100383.47;5023900;28;45485;-65
2021/05/24 08:52:55;;;;;;;;;1.33;0.67;;;;;20.82;37.90;100378.19;5008055;28;45260;-64
2021/05/24 08:55:20;;;;;;;;;0.67;0.67;;;;;20.82;38.13;100384.31;5025194;28;45249;-65
2021/05/24 08:57:46;;;;;;;;;0.67;0.67;;;;;20.82;38.09;100380.81;5038693;28;45358;-64
2021/05/24 09:00:15;;;;;;;;;2.00;1.67;;;;;20.82;37.92;100378.19;5045067;28;45446;-63
2021/05/24 09:02:45;;;;;;;;;1.00;1.00;;;;;20.82;37.78;100379.06;5044570;28;47863;-64
2021/05/24 09:05:11;;;;;;;;;0.67;0.67;;;;;20.83;38.00;100374.63;5043681;28;45303;-64
2021/05/24 09:07:53;;;;;;;;;1.33;1.33;;;;;20.83;38.12;100366.69;5043544;28;45443;-64
2021/05/24 09:10:20;;;;;;;;;1.00;1.00;;;;;20.84;37.94;100381.59;5045032;28;45399;-65
2021/05/24 09:12:46;;;;;;;;;1.33;1.33;;;;;20.84;37.93;100371.06;5043016;28;46137;-66
2021/05/24 09:15:14;;;;;;;;;0.67;0.67;;;;;20.83;38.02;100370.22;5044289;28;54621;-66
2021/05/24 09:17:47;;;;;;;;;1.33;1.33;;;;;20.85;38.04;100364.84;5037850;28;45478;-66
2021/05/24 09:20:14;;;;;;;;;0.67;0.67;;;;;20.84;38.10;100356.09;5024840;28;45375;-65
2021/05/24 09:22:39;;;;;;;;;2.33;2.00;;;;;20.84;37.95;100356.09;5027661;28;46117;-65
2021/05/24 09:25:05;;;;;;;;;0.67;0.67;;;;;20.85;38.02;100354.31;5029801;28;49856;-65
2021/05/24 09:27:35;;;;;;;;;0.67;0.67;;;;;20.85;38.38;100359.56;5022904;28;45399;-65
2021/05/24 09:30:01;;;;;;;;;0.67;0.67;;;;;20.86;38.17;100363.91;5024512;28;45564;-64
2021/05/24 09:32:29;;;;;;;;;1.00;1.00;;;;;20.86;38.13;100345.47;5022658;28;48174;-64
2021/05/24 09:34:55;;;;;;;;;0.67;0.67;;;;;20.85;38.19;100349.91;5023962;28;45457;-64
2021/05/24 09:37:50;;;;;;;;;1.67;1.67;;;;;20.86;38.16;100345.47;5036341;28;45354;-64
2021/05/24 09:40:23;;;;;;;;;1.00;1.00;;;;;20.86;38.16;100348.97;5015144;28;45461;-64
2021/05/24 09:42:48;;;;;;;;;2.33;0.67;;;;;20.86;38.00;100348.09;5023442;28;45695;-64
2021/05/24 09:45:18;;;;;;;;;2.67;0.67;;;;;20.88;37.95;100350.63;5024086;28;45380;-63
2021/05/24 09:47:44;;;;;;;;;1.00;1.00;;;;;20.88;37.81;100340.97;5024538;28;45281;-63
2021/05/24 09:50:18;;;;;;;;;1.67;1.67;;;;;20.88;38.02;100338.31;5023958;28;45346;-64
2021/05/24 09:52:44;;;;;;;;;1.67;1.67;;;;;20.89;38.05;100331.25;5023979;28;45452;-63
2021/05/24 09:55:21;;;;;;;;;3.33;2.33;;;;;20.89;38.09;100329.47;5023848;28;45293;-64
2021/05/24 09:57:54;;;;;;;;;1.00;1.00;;;;;20.90;38.10;100332.97;5023766;28;45228;-65
2021/05/24 10:00:23;;;;;;;;;1.67;1.67;;;;;20.90;38.00;100322.41;5038509;28;45562;-64
2021/05/24 10:02:48;;;;;;;;;1.67;1.67;;;;;20.89;37.81;100326.84;5022434;28;47203;-65
2021/05/24 10:05:14;;;;;;;;;1.00;1.00;;;;;20.90;38.02;100328.56;5023847;28;45347;-66
2021/05/24 10:07:40;;;;;;;;;0.67;0.67;;;;;20.91;37.90;100327.63;5013526;28;45371;-65
2021/05/24 10:10:06;;;;;;;;;2.67;2.67;;;;;20.91;38.02;100329.38;5024005;28;45331;-65
2021/05/24 10:12:32;;;;;;;;;1.67;1.00;;;;;20.90;37.85;100325.91;5022343;28;47992;-65
2021/05/24 10:14:59;;;;;;;;;1.67;1.67;;;;;20.90;37.99;100307.44;5023603;28;45375;-65
2021/05/24 10:17:26;;;;;;;;;1.67;1.33;;;;;20.90;38.17;100328.56;5022754;28;45356;-65
2021/05/24 10:19:51;;;;;;;;;0.67;0.67;;;;;20.90;37.94;100318.00;5022481;28;45550;-65
2021/05/24 10:22:17;;;;;;;;;1.00;1.00;;;;;20.91;38.04;100317.06;5023965;28;46141;-65
2021/05/24 10:24:42;;;;;;;;;2.67;2.00;;;;;20.90;37.96;100314.50;5024319;28;45324;-66
2021/05/24 10:27:08;;;;;;;;;1.00;1.00;;;;;20.89;37.92;100313.66;5022999;28;53848;-65
2021/05/24 10:29:33;;;;;;;;;2.33;2.00;;;;;20.89;38.10;100320.69;5022560;28;45397;-65
2021/05/24 10:32:00;;;;;;;;;1.00;1.00;;;;;20.89;37.96;100326.84;5023440;28;45382;-65
2021/05/24 10:34:26;;;;;;;;;0.67;0.67;;;;;20.89;37.87;100312.78;5022085;28;45332;-66
2021/05/24 10:37:06;;;;;;;;;1.00;1.00;;;;;20.89;37.69;100316.28;5032631;28;45357;-65
2021/05/24 10:39:52;;;;;;;;;0.67;0.67;;;;;20.88;38.17;100306.69;5024710;28;45453;-64
2021/05/24 10:42:18;;;;;;;;;3.00;1.33;;;;;20.88;38.26;100297.91;5023108;28;46200;-65
2021/05/24 10:44:45;;;;;;;;;1.00;0.67;;;;;20.87;38.03;100289.16;5021822;28;45355;-64
2021/05/24 10:47:34;;;;;;;;;1.33;1.33;;;;;20.87;38.11;100299.69;5023274;28;45339;-64
2021/05/24 10:50:06;;;;;;;;;3.00;1.33;;;;;20.88;37.98;100297.91;5023201;28;45457;-64
2021/05/24 10:52:33;;;;;;;;;0.67;0.67;;;;;20.88;38.11;100293.50;5021434;28;47704;-64
2021/05/24 10:54:59;;;;;;;;;2.00;1.33;;;;;20.87;37.72;100291.78;5021826;28;45415;-64
2021/05/24 10:57:29;;;;;;;;;1.67;1.33;;;;;20.86;37.74;100296.22;5026437;28;45256;-64
2021/05/24 10:59:56;;;;;;;;;1.00;1.00;;;;;20.85;37.87;100297.16;5035468;28;45718;-64
2021/05/24 11:02:27;;;;;;;;;1.33;1.33;;;;;20.85;37.83;100291.88;5042977;28;45938;-64
2021/05/24 11:05:04;;;;;;;;;3.33;1.67;;;;;20.84;37.78;100306.00;5041483;28;45468;-65
2021/05/24 11:07:34;;;;;;;;;1.00;1.00;;;;;20.85;38.16;100309.47;5041585;28;45348;-65
2021/05/24 11:10:20;;;;;;;;;1.67;1.67;;;;;20.85;38.22;100327.94;5041780;28;45274;-65
2021/05/24 11:13:08;;;;;;;;;1.67;1.67;;;;;20.84;38.22;100311.25;5042636;28;45429;-65
2021/05/24 11:15:35;;;;;;;;;1.67;1.67;;;;;20.83;38.24;100296.38;5042708;28;45455;-65
2021/05/24 11:18:04;;;;;;;;;2.00;2.00;;;;;20.84;38.14;100305.13;5031560;28;45443;-65
2021/05/24 11:20:54;;;;;;;;;2.33;2.00;;;;;20.84;37.94;100300.72;5022858;28;45331;-67
2021/05/24 11:26:14;;;;;;;;;2.67;0.67;;;;;20.83;37.98;100259.44;5023173;28;45307;-65